Terminal Aerodrome Forecast
Issued by NWS Lake Charles, LA

Home | Current Version | Previous Version | Text Only | Print | Product List | Glossary On
Versions: 1 2 3 4 5 6 7 8 9 10 11 12 13 14 15 16 17 18 19 20 21
000
FTUS44 KLCH 012320
TAFBPT
TAF
KBPT 012320Z 0200/0224 22007KT P6SM VCTS SCT025CB SCT035 BKN250
      TEMPO 0200/0201 VRB15G30KT 2SM TSRA BKN025CB
     FM020200 21005KT P6SM BKN250
     FM021400 18009KT P6SM SCT025
     FM021800 18013G19KT P6SM SCT040=

USA.gov is the U.S. government's official web portal to all federal, state and local government web resources and services.